Terrell, TX

7:54 AM CST on January 19, 2017 (GMT -0600)
Terrell Municipal | | Change Station

Elev 472 ft 32.71 °N, 96.27 °W | Updated 20 minutes ago

Overcast
Overcast
51 °F
Feels Like 51 °F
N
6
Wind Variable Wind from SSE

Today
High -- | Low -- °F
--% Chance of Precip.
Yesterday
High -- | Low -- °F
Precip. -- in
Pressure 29.84 in
Visibility 3.0 miles
Clouds Mostly Cloudy 300 ft
Overcast 1000 ft
Dew Point 49 °F
Humidity 92%
Rainfall 0.00 in
Snow Depth Not available.
7:26 AM 5:45 PM
Waning Gibbous, 53% visible
SPECI KTRL 191334Z AUTO 16005KT 3SM BR BKN003 OVC010 11/09 A2984 RMK AO2 T01060094
Pressure 29.84 in
Visibility 3.0 miles
Clouds Mostly Cloudy 300 ft
Overcast 1000 ft
Dew Point 49 °F
Humidity 92%
Rainfall 0.00 in
Snow Depth Not available.
7:26 AM 5:45 PM
Waning Gibbous, 53% visible
SPECI KTRL 191334Z AUTO 16005KT 3SM BR BKN003 OVC010 11/09 A2984 RMK AO2 T01060094

Get Your Daily Forecast Email!

Thanks for signing up!

Be on the lookout for a verification email in your inbox.

You'll start receiving the daily forecast at 8 AM.

×

10-Day Weather Forecast

Almanac

Astronomy

Jan. 19, 2017 Rise Set
Actual Time
Civil Twilight
Nautical Twilight
Astronomical Twilight
Moon
Length of Visible Light
Length of Day
Tomorrow will be .
, % of the Moon is Illuminated

Today's Extremes

State Highs State Lows

Community

WunderPhotos

Upload Photos

1,962,540 photos uploaded!

WunderBlog® & News

Nearby

Air Quality

  Air Quality AQ Index Pollutant
Not available.

Snow Depth

Station Depth Elevation

Earthquake Activity

City Distance Mag. Time & Date
Minimum magnitude displayed is 2.5.

Coastal Water Temperatures

Place Temperature

Stations

Nearby Weather Stations

Station Location Temp. Windchill Dew Point Humidity Wind Precip. Elev Updated Type
                   

Watches & Warnings

There are currently no watches in effect.